createdAt,value
2018-12-23T00:00:25.219Z,74.47
2018-12-23T00:05:30.468Z,72.78
2018-12-23T00:10:34.261Z,75.87
2018-12-23T00:15:38.483Z,76.60
2018-12-23T00:20:42.481Z,68.33
2018-12-23T00:25:46.275Z,45.00
2018-12-23T00:30:50.200Z,47.35
2018-12-23T00:35:54.118Z,48.63
2018-12-23T00:40:58.057Z,59.53
2018-12-23T00:46:01.975Z,56.50
2018-12-23T00:51:06.515Z,55.95
2018-12-23T00:56:12.523Z,55.83
2018-12-23T01:01:16.407Z,60.15
2018-12-23T01:06:20.313Z,59.90
2018-12-23T01:11:24.354Z,60.00
2018-12-23T01:16:28.167Z,69.32
2018-12-23T01:21:32.105Z,66.17
2018-12-23T01:26:36.080Z,70.80
2018-12-23T01:31:40.073Z,70.40
2018-12-23T01:36:43.965Z,72.45
2018-12-23T01:41:47.861Z,70.57
2018-12-23T01:46:51.885Z,68.80
2018-12-23T01:51:55.748Z,70.52
2018-12-23T01:56:59.746Z,67.67
2018-12-23T02:02:03.853Z,63.92
2018-12-23T02:07:08.007Z,63.45
2018-12-23T02:12:12.104Z,58.08
2018-12-23T02:17:16.026Z,59.83
2018-12-23T02:22:19.777Z,59.70
2018-12-23T02:27:23.773Z,65.75
2018-12-23T02:32:27.698Z,64.10
2018-12-23T02:37:32.327Z,70.17
2018-12-23T02:42:36.152Z,69.50
2018-12-23T02:47:40.190Z,70.72
2018-12-23T02:52:44.092Z,73.20
2018-12-23T02:57:48.002Z,71.15
2018-12-23T03:02:51.755Z,71.07
2018-12-23T03:07:55.920Z,73.05
2018-12-23T03:12:59.716Z,72.47
2018-12-23T03:18:03.813Z,66.12
2018-12-23T03:23:08.652Z,59.93
2018-12-23T03:28:12.693Z,55.52
2018-12-23T03:33:16.719Z,48.90
2018-12-23T03:38:20.550Z,45.35
2018-12-23T03:43:24.465Z,45.43
2018-12-23T03:48:28.619Z,44.08
2018-12-23T03:53:32.520Z,46.35
2018-12-23T03:58:36.490Z,54.27
2018-12-23T04:03:40.418Z,55.28
2018-12-23T04:08:44.082Z,62.62
2018-12-23T04:13:47.943Z,56.10
2018-12-23T04:18:52.050Z,58.83
2018-12-23T04:23:56.025Z,56.80
2018-12-23T04:28:59.709Z,66.77
2018-12-23T04:34:03.543Z,68.35
2018-12-23T04:39:07.366Z,64.62
2018-12-23T04:44:11.160Z,68.95
2018-12-23T04:49:15.432Z,68.72
2018-12-23T04:54:19.303Z,66.90
2018-12-23T04:59:23.076Z,37.13
2018-12-23T05:04:26.931Z,49.90
2018-12-23T05:09:31.189Z,35.10
2018-12-23T05:14:34.911Z,19.52
2018-12-23T05:19:39.054Z,42.73
2018-12-23T05:24:44.515Z,39.00
2018-12-23T05:29:48.314Z,31.70
2018-12-23T05:34:52.201Z,45.40
2018-12-23T05:39:55.983Z,35.43
2018-12-23T05:44:59.862Z,39.60
2018-12-23T05:50:03.778Z,38.67
2018-12-23T05:55:07.591Z,17.50
2018-12-23T06:00:11.240Z,40.45
2018-12-23T06:05:14.941Z,40.83
2018-12-23T06:10:21.067Z,31.05
2018-12-23T06:15:24.746Z,35.23
2018-12-23T06:20:28.755Z,25.48
2018-12-23T06:25:32.490Z,31.45
2018-12-23T06:30:36.263Z,14.95
2018-12-23T06:35:40.063Z,36.35
2018-12-23T06:40:44.007Z,35.68
2018-12-23T06:45:47.776Z,38.20
2018-12-23T06:50:51.647Z,34.48
2018-12-23T06:55:55.459Z,29.72
2018-12-23T07:00:59.242Z,31.73
2018-12-23T07:06:04.811Z,15.40
2018-12-23T07:11:08.544Z,6.20
2018-12-23T07:16:12.462Z,5.70
2018-12-23T07:21:16.809Z,5.78
2018-12-23T07:26:20.563Z,5.20
2018-12-23T07:31:24.365Z,6.62
2018-12-23T07:36:28.239Z,4.40
2018-12-23T07:41:31.934Z,0.82
2018-12-23T07:46:35.969Z,4.72
2018-12-23T07:51:39.917Z,4.20
2018-12-23T07:56:43.643Z,2.90
2018-12-23T08:01:47.342Z,2.37
2018-12-23T08:06:51.663Z,3.33
2018-12-23T08:11:56.867Z,3.87
2018-12-23T08:17:00.764Z,1.67
2018-12-23T08:22:04.701Z,4.20
2018-12-23T08:27:12.055Z,3.30
2018-12-23T08:32:17.325Z,3.80
2018-12-23T08:37:23.253Z,3.95
2018-12-23T08:42:27.127Z,2.30
2018-12-23T08:47:30.961Z,5.60
2018-12-23T08:52:34.922Z,3.10
2018-12-23T08:57:38.897Z,1.77
2018-12-23T09:02:42.660Z,6.03
2018-12-23T09:07:53.042Z,4.10
2018-12-23T09:12:55.001Z,3.70
2018-12-23T09:18:02.219Z,3.33
2018-12-23T09:23:07.001Z,2.33
2018-12-23T09:28:10.946Z,2.42
2018-12-23T09:33:14.716Z,2.15
2018-12-23T09:38:18.397Z,1.92
2018-12-23T09:43:22.023Z,2.10
2018-12-23T09:48:25.732Z,2.40
2018-12-23T09:53:29.569Z,1.77
2018-12-23T09:58:33.360Z,2.42
2018-12-23T10:03:37.094Z,2.70
2018-12-23T10:08:43.571Z,2.58
2018-12-23T10:13:48.354Z,2.47
2018-12-23T10:18:52.237Z,2.42
2018-12-23T10:23:58.441Z,2.45
2018-12-23T10:29:02.226Z,3.35
2018-12-23T10:34:05.973Z,2.83
2018-12-23T10:39:10.610Z,2.52
2018-12-23T10:44:14.403Z,2.62
2018-12-23T10:49:18.245Z,2.62
2018-12-23T10:54:22.269Z,1.77
2018-12-23T10:59:26.597Z,1.62
2018-12-23T11:04:30.570Z,1.50
2018-12-23T11:09:34.419Z,1.22
2018-12-23T11:14:38.587Z,2.67
2018-12-23T11:19:42.895Z,1.60
2018-12-23T11:24:47.114Z,3.20
2018-12-23T11:29:51.842Z,2.77
2018-12-23T11:34:56.877Z,1.40
2018-12-23T11:40:01.148Z,3.72
2018-12-23T11:45:06.353Z,2.50
2018-12-23T11:50:23.102Z,1.90
2018-12-23T11:55:27.533Z,2.25
2018-12-23T12:00:32.858Z,1.25
2018-12-23T12:05:37.483Z,6.78
2018-12-23T12:10:41.903Z,2.60
2018-12-23T12:15:46.239Z,2.83
2018-12-23T12:20:50.431Z,1.87
2018-12-23T12:25:55.362Z,2.37
2018-12-23T12:30:59.772Z,1.72
2018-12-23T12:36:04.419Z,3.67
2018-12-23T12:41:09.260Z,2.60
2018-12-23T12:46:13.230Z,2.98
2018-12-23T12:51:18.491Z,9.10
2018-12-23T12:56:22.979Z,4.00
2018-12-23T13:01:28.266Z,2.52
2018-12-23T13:06:33.017Z,4.30
2018-12-23T13:11:38.197Z,1.60
2018-12-23T13:16:42.207Z,2.58
2018-12-23T13:21:46.412Z,2.65
2018-12-23T13:26:50.580Z,3.15
2018-12-23T13:31:54.335Z,1.12
2018-12-23T13:36:58.009Z,3.62
2018-12-23T13:43:19.726Z,3.58
2018-12-23T13:48:51.059Z,2.35
2018-12-23T13:54:06.252Z,4.05
2018-12-23T13:59:21.922Z,2.10
2018-12-23T14:04:40.161Z,2.87
2018-12-23T14:10:36.533Z,3.30
2018-12-23T14:15:40.380Z,2.27
2018-12-23T14:20:44.406Z,1.50
2018-12-23T14:25:48.971Z,4.25
2018-12-23T14:30:52.870Z,3.15
2018-12-23T14:35:56.653Z,2.15
2018-12-23T14:41:00.341Z,2.62
2018-12-23T14:46:04.040Z,2.90
2018-12-23T14:51:07.826Z,2.60
2018-12-23T14:56:11.659Z,3.37
2018-12-23T15:01:15.571Z,3.62
2018-12-23T15:06:19.404Z,3.50
2018-12-23T15:11:24.762Z,10.00
2018-12-23T15:16:28.837Z,3.37
2018-12-23T15:21:32.658Z,2.52
2018-12-23T15:26:36.538Z,3.83
2018-12-23T15:31:40.391Z,5.03
2018-12-23T15:36:44.176Z,10.40
2018-12-23T15:41:48.258Z,6.03
2018-12-23T15:46:52.082Z,5.60
2018-12-23T15:51:55.931Z,3.00
2018-12-23T15:56:59.687Z,3.50
2018-12-23T16:02:04.153Z,3.00
2018-12-23T16:07:08.116Z,3.83
2018-12-23T16:12:11.836Z,3.90
2018-12-23T16:17:16.223Z,4.17
2018-12-23T16:22:20.010Z,2.55
2018-12-23T16:27:24.005Z,9.95
2018-12-23T16:32:27.844Z,11.00
2018-12-23T16:37:32.656Z,3.08
2018-12-23T16:42:36.350Z,6.85
2018-12-23T16:47:40.623Z,6.60
2018-12-23T16:52:45.509Z,4.55
2018-12-23T16:57:49.256Z,4.83
2018-12-23T17:02:53.285Z,2.55
2018-12-23T17:07:57.042Z,7.55
2018-12-23T17:13:01.004Z,4.42
2018-12-23T17:18:05.038Z,2.58
2018-12-23T17:23:08.952Z,1.85
2018-12-23T17:28:12.779Z,2.10
2018-12-23T17:33:16.759Z,4.28
2018-12-23T17:38:20.576Z,5.05
2018-12-23T17:43:24.803Z,3.35
2018-12-23T17:48:28.677Z,3.72
2018-12-23T17:53:32.647Z,3.55
2018-12-23T17:58:36.404Z,9.75
2018-12-23T18:03:40.255Z,5.33
2018-12-23T18:08:43.974Z,9.10
2018-12-23T18:13:47.814Z,8.75
2018-12-23T18:18:51.792Z,7.05
2018-12-23T18:23:55.602Z,11.68
2018-12-23T18:28:59.422Z,7.78
2018-12-23T18:34:03.336Z,6.25
2018-12-23T18:39:07.457Z,10.15
2018-12-23T18:44:12.073Z,13.22
2018-12-23T18:49:15.935Z,19.15
2018-12-23T18:54:20.053Z,27.98
2018-12-23T18:59:24.273Z,18.55
2018-12-23T19:04:28.277Z,12.18
2018-12-23T19:10:42.269Z,12.28
2018-12-23T19:16:31.890Z,12.18
2018-12-23T19:22:18.664Z,8.65
2018-12-23T19:27:59.669Z,28.50
2018-12-23T19:33:21.127Z,29.07
2018-12-23T19:38:51.474Z,15.60
2018-12-23T19:44:22.108Z,15.68
2018-12-23T19:49:51.234Z,18.00
2018-12-23T19:55:26.474Z,16.32
2018-12-23T20:01:03.099Z,19.90
2018-12-23T20:06:44.066Z,16.05
2018-12-23T20:12:20.129Z,51.58
2018-12-23T20:18:08.893Z,46.95
2018-12-23T20:23:48.666Z,85.77
2018-12-23T20:29:18.184Z,19.85
2018-12-23T20:34:52.302Z,28.47
2018-12-23T20:41:07.970Z,6.55
2018-12-23T20:46:36.343Z,20.77
2018-12-23T20:52:23.233Z,18.07
2018-12-23T20:57:51.838Z,7.37
2018-12-23T21:03:45.942Z,38.13
2018-12-23T21:09:28.209Z,17.42
2018-12-23T21:15:15.234Z,6.83
2018-12-23T21:21:09.778Z,5.37
2018-12-23T21:26:53.583Z,5.97
2018-12-23T21:32:17.767Z,11.70
2018-12-23T21:37:36.824Z,4.10
2018-12-23T21:43:34.072Z,8.05
2018-12-23T21:49:28.170Z,11.63
2018-12-23T21:55:13.762Z,7.08
2018-12-23T22:00:40.533Z,16.60
2018-12-23T22:06:32.760Z,14.33
2018-12-23T22:12:20.875Z,12.75
2018-12-23T22:17:24.449Z,12.82
2018-12-23T22:22:27.994Z,15.00
2018-12-23T22:27:38.029Z,7.70
2018-12-23T22:32:42.646Z,7.47
2018-12-23T22:37:46.327Z,12.85
2018-12-23T22:42:49.882Z,11.55
2018-12-23T22:47:53.688Z,16.52
2018-12-23T22:52:57.452Z,7.80
2018-12-23T22:58:00.866Z,5.40
2018-12-23T23:03:09.285Z,18.15
2018-12-23T23:08:12.780Z,7.00
2018-12-23T23:13:18.672Z,7.35
2018-12-23T23:18:21.811Z,5.30
2018-12-23T23:23:25.234Z,5.60
2018-12-23T23:28:28.918Z,7.35
2018-12-23T23:33:33.150Z,4.67
2018-12-23T23:38:38.166Z,3.40
2018-12-23T23:43:41.630Z,4.67
2018-12-23T23:48:45.179Z,1.85
2018-12-23T23:53:48.716Z,2.20
2018-12-23T23:58:52.248Z,5.60
